sensor_id;sensor_type;location;lat;lon;timestamp;P1;durP1;ratioP1;P2;durP2;ratioP2
9322;SDS011;4700;48.822;9.270;2023-07-22T00:00:03;373.87;;;150.23;;
9322;SDS011;4700;48.822;9.270;2023-07-22T00:02:53;369.07;;;140.97;;
9322;SDS011;4700;48.822;9.270;2023-07-22T00:05:39;369.47;;;143.50;;
9322;SDS011;4700;48.822;9.270;2023-07-22T00:08:26;367.53;;;140.30;;
9322;SDS011;4700;48.822;9.270;2023-07-22T00:11:12;369.67;;;142.53;;
9322;SDS011;4700;48.822;9.270;2023-07-22T00:13:58;368.07;;;139.70;;
9322;SDS011;4700;48.822;9.270;2023-07-22T00:16:44;365.43;;;137.80;;
9322;SDS011;4700;48.822;9.270;2023-07-22T00:19:30;366.50;;;140.77;;
9322;SDS011;4700;48.822;9.270;2023-07-22T00:22:15;366.33;;;139.83;;
9322;SDS011;4700;48.822;9.270;2023-07-22T00:25:03;368.77;;;145.13;;
9322;SDS011;4700;48.822;9.270;2023-07-22T00:27:49;369.43;;;142.57;;
9322;SDS011;4700;48.822;9.270;2023-07-22T00:30:35;368.60;;;143.37;;
9322;SDS011;4700;48.822;9.270;2023-07-22T00:33:21;368.67;;;142.13;;
9322;SDS011;4700;48.822;9.270;2023-07-22T00:36:07;368.57;;;139.37;;
9322;SDS011;4700;48.822;9.270;2023-07-22T00:38:53;369.40;;;138.87;;
9322;SDS011;4700;48.822;9.270;2023-07-22T00:41:40;438.13;;;174.93;;
9322;SDS011;4700;48.822;9.270;2023-07-22T00:44:27;368.87;;;141.87;;
9322;SDS011;4700;48.822;9.270;2023-07-22T00:47:13;371.67;;;143.03;;
9322;SDS011;4700;48.822;9.270;2023-07-22T00:49:59;369.87;;;141.57;;
9322;SDS011;4700;48.822;9.270;2023-07-22T00:52:47;367.40;;;139.20;;
9322;SDS011;4700;48.822;9.270;2023-07-22T00:55:33;371.63;;;143.27;;
9322;SDS011;4700;48.822;9.270;2023-07-22T00:58:25;365.33;;;135.80;;
9322;SDS011;4700;48.822;9.270;2023-07-22T01:01:11;370.43;;;143.13;;
9322;SDS011;4700;48.822;9.270;2023-07-22T01:03:56;380.50;;;147.50;;
9322;SDS011;4700;48.822;9.270;2023-07-22T01:06:42;369.50;;;138.90;;
9322;SDS011;4700;48.822;9.270;2023-07-22T01:09:33;370.00;;;140.47;;
9322;SDS011;4700;48.822;9.270;2023-07-22T01:12:19;371.30;;;143.77;;
9322;SDS011;4700;48.822;9.270;2023-07-22T01:15:07;369.87;;;142.47;;
9322;SDS011;4700;48.822;9.270;2023-07-22T01:17:53;369.90;;;139.03;;
9322;SDS011;4700;48.822;9.270;2023-07-22T01:20:40;370.03;;;137.77;;
9322;SDS011;4700;48.822;9.270;2023-07-22T01:23:29;367.77;;;139.10;;
9322;SDS011;4700;48.822;9.270;2023-07-22T01:26:17;366.33;;;135.57;;
9322;SDS011;4700;48.822;9.270;2023-07-22T01:29:04;369.47;;;135.57;;
9322;SDS011;4700;48.822;9.270;2023-07-22T01:31:50;367.60;;;139.27;;
9322;SDS011;4700;48.822;9.270;2023-07-22T01:34:37;367.30;;;136.20;;
9322;SDS011;4700;48.822;9.270;2023-07-22T01:37:23;368.47;;;136.00;;
9322;SDS011;4700;48.822;9.270;2023-07-22T01:40:11;365.17;;;134.90;;
9322;SDS011;4700;48.822;9.270;2023-07-22T01:42:57;364.67;;;133.47;;
9322;SDS011;4700;48.822;9.270;2023-07-22T01:45:43;363.70;;;133.10;;
9322;SDS011;4700;48.822;9.270;2023-07-22T01:48:29;361.97;;;134.27;;
9322;SDS011;4700;48.822;9.270;2023-07-22T01:51:16;366.20;;;136.87;;
9322;SDS011;4700;48.822;9.270;2023-07-22T01:54:03;363.17;;;132.30;;
9322;SDS011;4700;48.822;9.270;2023-07-22T01:56:50;363.37;;;133.17;;
9322;SDS011;4700;48.822;9.270;2023-07-22T01:59:36;363.87;;;132.20;;
9322;SDS011;4700;48.822;9.270;2023-07-22T02:02:22;365.57;;;130.17;;
9322;SDS011;4700;48.822;9.270;2023-07-22T02:05:08;364.83;;;131.70;;
9322;SDS011;4700;48.822;9.270;2023-07-22T02:07:55;363.00;;;133.47;;
9322;SDS011;4700;48.822;9.270;2023-07-22T02:10:43;362.97;;;130.97;;
9322;SDS011;4700;48.822;9.270;2023-07-22T02:13:30;368.17;;;133.20;;
9322;SDS011;4700;48.822;9.270;2023-07-22T02:16:16;364.37;;;133.87;;
9322;SDS011;4700;48.822;9.270;2023-07-22T02:19:02;362.83;;;132.57;;
9322;SDS011;4700;48.822;9.270;2023-07-22T02:21:48;361.43;;;130.23;;
9322;SDS011;4700;48.822;9.270;2023-07-22T02:24:34;362.40;;;128.30;;
9322;SDS011;4700;48.822;9.270;2023-07-22T02:27:20;362.23;;;128.90;;
9322;SDS011;4700;48.822;9.270;2023-07-22T02:30:08;361.27;;;131.67;;
9322;SDS011;4700;48.822;9.270;2023-07-22T02:32:55;362.47;;;131.40;;
9322;SDS011;4700;48.822;9.270;2023-07-22T02:35:41;361.07;;;130.60;;
9322;SDS011;4700;48.822;9.270;2023-07-22T02:38:27;362.93;;;131.93;;
9322;SDS011;4700;48.822;9.270;2023-07-22T02:41:16;362.97;;;132.73;;
9322;SDS011;4700;48.822;9.270;2023-07-22T02:44:02;362.70;;;133.83;;
9322;SDS011;4700;48.822;9.270;2023-07-22T02:46:49;367.53;;;136.83;;
9322;SDS011;4700;48.822;9.270;2023-07-22T02:49:38;358.77;;;126.47;;
9322;SDS011;4700;48.822;9.270;2023-07-22T02:52:27;358.83;;;128.80;;
9322;SDS011;4700;48.822;9.270;2023-07-22T02:55:14;361.60;;;129.60;;
9322;SDS011;4700;48.822;9.270;2023-07-22T02:58:02;358.50;;;128.57;;
9322;SDS011;4700;48.822;9.270;2023-07-22T03:00:49;358.87;;;128.40;;
9322;SDS011;4700;48.822;9.270;2023-07-22T03:03:36;361.33;;;130.07;;
9322;SDS011;4700;48.822;9.270;2023-07-22T03:06:25;358.07;;;127.40;;
9322;SDS011;4700;48.822;9.270;2023-07-22T03:09:15;359.37;;;129.17;;
9322;SDS011;4700;48.822;9.270;2023-07-22T03:12:01;360.63;;;128.67;;
9322;SDS011;4700;48.822;9.270;2023-07-22T03:14:55;359.67;;;126.90;;
9322;SDS011;4700;48.822;9.270;2023-07-22T03:17:43;358.43;;;127.63;;
9322;SDS011;4700;48.822;9.270;2023-07-22T03:20:30;357.50;;;125.77;;
9322;SDS011;4700;48.822;9.270;2023-07-22T03:23:17;359.77;;;125.40;;
9322;SDS011;4700;48.822;9.270;2023-07-22T03:28:41;421.50;;;156.63;;
9322;SDS011;4700;48.822;9.270;2023-07-22T03:31:27;358.47;;;127.97;;
9322;SDS011;4700;48.822;9.270;2023-07-22T03:34:15;362.50;;;129.43;;
9322;SDS011;4700;48.822;9.270;2023-07-22T03:37:02;359.00;;;132.30;;
9322;SDS011;4700;48.822;9.270;2023-07-22T03:39:48;358.53;;;127.87;;
9322;SDS011;4700;48.822;9.270;2023-07-22T03:45:10;359.03;;;127.00;;
9322;SDS011;4700;48.822;9.270;2023-07-22T03:47:57;361.00;;;127.23;;
9322;SDS011;4700;48.822;9.270;2023-07-22T03:50:43;363.30;;;128.70;;
9322;SDS011;4700;48.822;9.270;2023-07-22T03:53:31;360.97;;;128.23;;
9322;SDS011;4700;48.822;9.270;2023-07-22T03:56:17;362.57;;;132.43;;
9322;SDS011;4700;48.822;9.270;2023-07-22T03:59:03;359.67;;;130.03;;
9322;SDS011;4700;48.822;9.270;2023-07-22T04:01:49;362.87;;;131.33;;
9322;SDS011;4700;48.822;9.270;2023-07-22T04:04:36;360.20;;;130.63;;
9322;SDS011;4700;48.822;9.270;2023-07-22T04:07:24;359.07;;;127.50;;
9322;SDS011;4700;48.822;9.270;2023-07-22T04:10:11;363.50;;;133.93;;
9322;SDS011;4700;48.822;9.270;2023-07-22T04:13:00;362.07;;;131.97;;
9322;SDS011;4700;48.822;9.270;2023-07-22T04:15:49;358.97;;;130.50;;
9322;SDS011;4700;48.822;9.270;2023-07-22T04:18:37;362.87;;;132.97;;
9322;SDS011;4700;48.822;9.270;2023-07-22T04:21:23;362.50;;;134.10;;
9322;SDS011;4700;48.822;9.270;2023-07-22T04:24:09;363.97;;;130.57;;
9322;SDS011;4700;48.822;9.270;2023-07-22T04:26:57;362.63;;;129.87;;
9322;SDS011;4700;48.822;9.270;2023-07-22T04:29:43;363.70;;;130.10;;
9322;SDS011;4700;48.822;9.270;2023-07-22T04:32:29;362.47;;;133.80;;
9322;SDS011;4700;48.822;9.270;2023-07-22T04:35:15;361.13;;;130.83;;
9322;SDS011;4700;48.822;9.270;2023-07-22T04:38:01;370.77;;;137.77;;
9322;SDS011;4700;48.822;9.270;2023-07-22T04:40:48;367.13;;;137.10;;
9322;SDS011;4700;48.822;9.270;2023-07-22T04:43:35;394.70;;;149.30;;
9322;SDS011;4700;48.822;9.270;2023-07-22T04:46:21;368.17;;;137.53;;
9322;SDS011;4700;48.822;9.270;2023-07-22T04:49:07;372.00;;;138.67;;
9322;SDS011;4700;48.822;9.270;2023-07-22T04:51:53;378.90;;;140.63;;
9322;SDS011;4700;48.822;9.270;2023-07-22T04:54:41;370.57;;;140.33;;
9322;SDS011;4700;48.822;9.270;2023-07-22T04:57:26;371.33;;;139.50;;
9322;SDS011;4700;48.822;9.270;2023-07-22T05:00:14;371.17;;;137.17;;
9322;SDS011;4700;48.822;9.270;2023-07-22T05:03:02;368.57;;;135.17;;
9322;SDS011;4700;48.822;9.270;2023-07-22T05:05:48;372.53;;;142.43;;
9322;SDS011;4700;48.822;9.270;2023-07-22T05:08:34;372.53;;;137.60;;
9322;SDS011;4700;48.822;9.270;2023-07-22T05:11:21;376.10;;;139.63;;
9322;SDS011;4700;48.822;9.270;2023-07-22T05:14:08;379.57;;;143.30;;
9322;SDS011;4700;48.822;9.270;2023-07-22T05:16:55;375.87;;;144.20;;
9322;SDS011;4700;48.822;9.270;2023-07-22T05:19:41;376.00;;;142.87;;
9322;SDS011;4700;48.822;9.270;2023-07-22T05:22:27;383.70;;;147.83;;
9322;SDS011;4700;48.822;9.270;2023-07-22T05:25:12;380.23;;;148.20;;
9322;SDS011;4700;48.822;9.270;2023-07-22T05:27:58;379.63;;;146.70;;
9322;SDS011;4700;48.822;9.270;2023-07-22T05:30:44;379.37;;;147.17;;
9322;SDS011;4700;48.822;9.270;2023-07-22T05:33:31;381.00;;;143.93;;
9322;SDS011;4700;48.822;9.270;2023-07-22T05:36:17;378.67;;;142.47;;
9322;SDS011;4700;48.822;9.270;2023-07-22T05:39:05;379.57;;;146.17;;
9322;SDS011;4700;48.822;9.270;2023-07-22T05:41:51;378.77;;;148.77;;
9322;SDS011;4700;48.822;9.270;2023-07-22T05:44:37;381.87;;;152.07;;
9322;SDS011;4700;48.822;9.270;2023-07-22T05:47:26;384.23;;;159.63;;
9322;SDS011;4700;48.822;9.270;2023-07-22T05:50:13;388.17;;;167.30;;
9322;SDS011;4700;48.822;9.270;2023-07-22T05:52:58;386.47;;;168.47;;
9322;SDS011;4700;48.822;9.270;2023-07-22T05:55:45;385.17;;;158.90;;
9322;SDS011;4700;48.822;9.270;2023-07-22T05:58:31;385.00;;;160.73;;
9322;SDS011;4700;48.822;9.270;2023-07-22T06:01:17;385.97;;;157.87;;
9322;SDS011;4700;48.822;9.270;2023-07-22T06:04:02;384.93;;;157.67;;
9322;SDS011;4700;48.822;9.270;2023-07-22T06:06:50;384.33;;;156.20;;
9322;SDS011;4700;48.822;9.270;2023-07-22T06:09:35;383.23;;;156.07;;
9322;SDS011;4700;48.822;9.270;2023-07-22T06:12:21;383.13;;;153.23;;
9322;SDS011;4700;48.822;9.270;2023-07-22T06:15:07;398.57;;;184.50;;
9322;SDS011;4700;48.822;9.270;2023-07-22T06:17:53;402.47;;;193.30;;
9322;SDS011;4700;48.822;9.270;2023-07-22T06:20:39;397.20;;;190.03;;
9322;SDS011;4700;48.822;9.270;2023-07-22T06:23:26;401.57;;;198.93;;
9322;SDS011;4700;48.822;9.270;2023-07-22T06:26:12;402.37;;;200.57;;
9322;SDS011;4700;48.822;9.270;2023-07-22T06:28:57;408.73;;;209.77;;
9322;SDS011;4700;48.822;9.270;2023-07-22T06:31:43;423.87;;;248.47;;
9322;SDS011;4700;48.822;9.270;2023-07-22T06:34:29;422.43;;;253.90;;
9322;SDS011;4700;48.822;9.270;2023-07-22T06:37:14;436.40;;;282.10;;
9322;SDS011;4700;48.822;9.270;2023-07-22T06:40:02;440.13;;;293.43;;
9322;SDS011;4700;48.822;9.270;2023-07-22T06:42:48;440.47;;;294.97;;
9322;SDS011;4700;48.822;9.270;2023-07-22T06:45:33;449.33;;;318.13;;
9322;SDS011;4700;48.822;9.270;2023-07-22T06:48:19;457.70;;;344.97;;
9322;SDS011;4700;48.822;9.270;2023-07-22T06:51:05;465.43;;;362.13;;
9322;SDS011;4700;48.822;9.270;2023-07-22T06:53:52;466.27;;;379.87;;
9322;SDS011;4700;48.822;9.270;2023-07-22T06:56:39;482.77;;;418.13;;
9322;SDS011;4700;48.822;9.270;2023-07-22T06:59:24;492.30;;;438.07;;
9322;SDS011;4700;48.822;9.270;2023-07-22T07:02:11;490.83;;;436.17;;
9322;SDS011;4700;48.822;9.270;2023-07-22T07:04:56;500.33;;;446.00;;
9322;SDS011;4700;48.822;9.270;2023-07-22T07:07:42;496.70;;;442.70;;
9322;SDS011;4700;48.822;9.270;2023-07-22T07:10:28;509.77;;;455.17;;
9322;SDS011;4700;48.822;9.270;2023-07-22T07:13:14;509.57;;;454.97;;
9322;SDS011;4700;48.822;9.270;2023-07-22T07:19:08;541.97;;;486.47;;
9322;SDS011;4700;48.822;9.270;2023-07-22T07:21:53;560.70;;;504.60;;
9322;SDS011;4700;48.822;9.270;2023-07-22T07:24:39;563.73;;;507.83;;
9322;SDS011;4700;48.822;9.270;2023-07-22T07:27:25;555.13;;;499.47;;
9322;SDS011;4700;48.822;9.270;2023-07-22T07:30:12;563.10;;;506.83;;
9322;SDS011;4700;48.822;9.270;2023-07-22T07:33:00;591.53;;;534.23;;
9322;SDS011;4700;48.822;9.270;2023-07-22T07:35:46;598.97;;;541.70;;
9322;SDS011;4700;48.822;9.270;2023-07-22T07:38:32;608.83;;;551.00;;
9322;SDS011;4700;48.822;9.270;2023-07-22T07:41:17;637.30;;;578.13;;
9322;SDS011;4700;48.822;9.270;2023-07-22T07:44:03;686.40;;;625.30;;
9322;SDS011;4700;48.822;9.270;2023-07-22T07:46:50;659.50;;;599.80;;
9322;SDS011;4700;48.822;9.270;2023-07-22T07:49:36;662.10;;;602.60;;
9322;SDS011;4700;48.822;9.270;2023-07-22T07:52:22;664.90;;;605.40;;
9322;SDS011;4700;48.822;9.270;2023-07-22T07:55:07;665.10;;;605.40;;
9322;SDS011;4700;48.822;9.270;2023-07-22T07:57:54;667.50;;;608.00;;
9322;SDS011;4700;48.822;9.270;2023-07-22T08:00:39;654.93;;;595.33;;
9322;SDS011;4700;48.822;9.270;2023-07-22T08:03:26;641.27;;;582.50;;
9322;SDS011;4700;48.822;9.270;2023-07-22T08:06:13;622.90;;;564.63;;
9322;SDS011;4700;48.822;9.270;2023-07-22T08:08:59;640.40;;;581.80;;
9322;SDS011;4700;48.822;9.270;2023-07-22T08:11:45;656.77;;;597.20;;
9322;SDS011;4700;48.822;9.270;2023-07-22T08:14:31;674.07;;;613.80;;
9322;SDS011;4700;48.822;9.270;2023-07-22T08:17:16;676.23;;;616.00;;
9322;SDS011;4700;48.822;9.270;2023-07-22T08:20:04;716.83;;;654.67;;
9322;SDS011;4700;48.822;9.270;2023-07-22T08:22:51;674.63;;;614.90;;
9322;SDS011;4700;48.822;9.270;2023-07-22T08:25:37;672.40;;;612.53;;
9322;SDS011;4700;48.822;9.270;2023-07-22T08:28:25;681.50;;;621.50;;
9322;SDS011;4700;48.822;9.270;2023-07-22T08:31:11;719.37;;;658.07;;
9322;SDS011;4700;48.822;9.270;2023-07-22T08:33:57;740.33;;;678.03;;
9322;SDS011;4700;48.822;9.270;2023-07-22T08:36:46;735.33;;;673.40;;
9322;SDS011;4700;48.822;9.270;2023-07-22T08:39:32;732.70;;;670.87;;
9322;SDS011;4700;48.822;9.270;2023-07-22T08:42:18;743.77;;;681.60;;
9322;SDS011;4700;48.822;9.270;2023-07-22T08:45:09;758.93;;;696.77;;
9322;SDS011;4700;48.822;9.270;2023-07-22T08:47:55;762.40;;;699.50;;
9322;SDS011;4700;48.822;9.270;2023-07-22T08:50:46;805.53;;;741.73;;
9322;SDS011;4700;48.822;9.270;2023-07-22T08:53:38;806.17;;;741.97;;
9322;SDS011;4700;48.822;9.270;2023-07-22T08:56:23;788.53;;;725.77;;
9322;SDS011;4700;48.822;9.270;2023-07-22T08:59:10;742.20;;;680.73;;
9322;SDS011;4700;48.822;9.270;2023-07-22T09:01:58;730.30;;;669.33;;
9322;SDS011;4700;48.822;9.270;2023-07-22T09:04:44;716.13;;;656.23;;
9322;SDS011;4700;48.822;9.270;2023-07-22T09:07:30;715.80;;;656.50;;
9322;SDS011;4700;48.822;9.270;2023-07-22T09:10:17;679.43;;;620.83;;
9322;SDS011;4700;48.822;9.270;2023-07-22T09:13:05;651.63;;;593.73;;
9322;SDS011;4700;48.822;9.270;2023-07-22T09:15:52;636.67;;;579.77;;
9322;SDS011;4700;48.822;9.270;2023-07-22T09:18:41;616.13;;;559.87;;
9322;SDS011;4700;48.822;9.270;2023-07-22T09:21:27;635.87;;;579.07;;
9322;SDS011;4700;48.822;9.270;2023-07-22T09:24:19;633.37;;;576.50;;
9322;SDS011;4700;48.822;9.270;2023-07-22T09:27:07;657.70;;;600.33;;
9322;SDS011;4700;48.822;9.270;2023-07-22T09:29:53;657.67;;;600.20;;
9322;SDS011;4700;48.822;9.270;2023-07-22T09:32:39;647.50;;;590.53;;
9322;SDS011;4700;48.822;9.270;2023-07-22T09:35:25;649.40;;;592.20;;
9322;SDS011;4700;48.822;9.270;2023-07-22T09:38:12;647.10;;;590.50;;
9322;SDS011;4700;48.822;9.270;2023-07-22T09:40:59;635.40;;;579.30;;
9322;SDS011;4700;48.822;9.270;2023-07-22T09:43:46;651.60;;;595.13;;
9322;SDS011;4700;48.822;9.270;2023-07-22T09:46:35;670.27;;;613.17;;
9322;SDS011;4700;48.822;9.270;2023-07-22T09:49:21;670.53;;;612.80;;
9322;SDS011;4700;48.822;9.270;2023-07-22T09:52:08;683.40;;;624.73;;
9322;SDS011;4700;48.822;9.270;2023-07-22T09:54:57;685.43;;;627.17;;
9322;SDS011;4700;48.822;9.270;2023-07-22T09:57:44;677.13;;;619.03;;
9322;SDS011;4700;48.822;9.270;2023-07-22T10:00:34;688.83;;;629.93;;
9322;SDS011;4700;48.822;9.270;2023-07-22T10:03:20;686.47;;;628.00;;
9322;SDS011;4700;48.822;9.270;2023-07-22T10:06:07;711.00;;;651.73;;
9322;SDS011;4700;48.822;9.270;2023-07-22T10:08:54;715.77;;;656.90;;
9322;SDS011;4700;48.822;9.270;2023-07-22T10:11:41;723.40;;;663.90;;
9322;SDS011;4700;48.822;9.270;2023-07-22T10:14:27;703.40;;;644.57;;
9322;SDS011;4700;48.822;9.270;2023-07-22T10:17:14;681.47;;;623.50;;
9322;SDS011;4700;48.822;9.270;2023-07-22T10:20:01;695.00;;;636.57;;
9322;SDS011;4700;48.822;9.270;2023-07-22T10:22:50;710.90;;;652.27;;
9322;SDS011;4700;48.822;9.270;2023-07-22T10:25:36;666.97;;;609.83;;
9322;SDS011;4700;48.822;9.270;2023-07-22T10:28:23;678.13;;;621.23;;
9322;SDS011;4700;48.822;9.270;2023-07-22T10:31:09;676.23;;;619.70;;
9322;SDS011;4700;48.822;9.270;2023-07-22T10:33:57;633.57;;;577.50;;
9322;SDS011;4700;48.822;9.270;2023-07-22T10:36:43;643.03;;;586.33;;
9322;SDS011;4700;48.822;9.270;2023-07-22T10:39:35;631.33;;;575.63;;
9322;SDS011;4700;48.822;9.270;2023-07-22T10:42:24;656.07;;;600.83;;
9322;SDS011;4700;48.822;9.270;2023-07-22T10:45:23;627.73;;;572.30;;
9322;SDS011;4700;48.822;9.270;2023-07-22T10:48:12;629.13;;;573.67;;
9322;SDS011;4700;48.822;9.270;2023-07-22T10:51:05;631.93;;;576.17;;
9322;SDS011;4700;48.822;9.270;2023-07-22T10:53:52;628.43;;;572.70;;
9322;SDS011;4700;48.822;9.270;2023-07-22T10:56:37;616.70;;;561.27;;
9322;SDS011;4700;48.822;9.270;2023-07-22T10:59:25;586.93;;;532.33;;
9322;SDS011;4700;48.822;9.270;2023-07-22T11:02:22;594.37;;;538.43;;
9322;SDS011;4700;48.822;9.270;2023-07-22T11:05:10;599.83;;;544.13;;
9322;SDS011;4700;48.822;9.270;2023-07-22T11:08:04;593.20;;;536.90;;
9322;SDS011;4700;48.822;9.270;2023-07-22T11:10:52;586.33;;;530.67;;
9322;SDS011;4700;48.822;9.270;2023-07-22T11:13:39;600.50;;;545.07;;
9322;SDS011;4700;48.822;9.270;2023-07-22T11:16:28;591.57;;;536.37;;
9322;SDS011;4700;48.822;9.270;2023-07-22T11:19:14;602.67;;;547.30;;
9322;SDS011;4700;48.822;9.270;2023-07-22T11:22:01;594.23;;;539.13;;
9322;SDS011;4700;48.822;9.270;2023-07-22T11:24:48;608.80;;;553.03;;
9322;SDS011;4700;48.822;9.270;2023-07-22T11:27:34;617.17;;;560.83;;
9322;SDS011;4700;48.822;9.270;2023-07-22T11:30:19;608.10;;;553.00;;
9322;SDS011;4700;48.822;9.270;2023-07-22T11:33:08;591.83;;;536.83;;
9322;SDS011;4700;48.822;9.270;2023-07-22T11:35:54;576.30;;;521.73;;
9322;SDS011;4700;48.822;9.270;2023-07-22T11:38:44;583.47;;;528.80;;
9322;SDS011;4700;48.822;9.270;2023-07-22T11:41:31;573.27;;;518.73;;
9322;SDS011;4700;48.822;9.270;2023-07-22T11:44:18;573.07;;;518.80;;
9322;SDS011;4700;48.822;9.270;2023-07-22T11:46:59;592.53;;;537.57;;
9322;SDS011;4700;48.822;9.270;2023-07-22T11:49:47;592.80;;;537.50;;
9322;SDS011;4700;48.822;9.270;2023-07-22T11:52:33;577.20;;;521.90;;
9322;SDS011;4700;48.822;9.270;2023-07-22T11:55:22;598.60;;;542.77;;
9322;SDS011;4700;48.822;9.270;2023-07-22T11:58:10;578.67;;;523.13;;
9322;SDS011;4700;48.822;9.270;2023-07-22T12:01:02;589.90;;;534.47;;
9322;SDS011;4700;48.822;9.270;2023-07-22T12:03:55;586.03;;;530.60;;
9322;SDS011;4700;48.822;9.270;2023-07-22T12:06:41;574.90;;;520.20;;
9322;SDS011;4700;48.822;9.270;2023-07-22T12:09:27;585.67;;;530.67;;
9322;SDS011;4700;48.822;9.270;2023-07-22T12:12:12;591.80;;;536.30;;
9322;SDS011;4700;48.822;9.270;2023-07-22T12:15:02;594.33;;;538.83;;
9322;SDS011;4700;48.822;9.270;2023-07-22T12:17:51;592.83;;;537.13;;
9322;SDS011;4700;48.822;9.270;2023-07-22T12:20:39;549.43;;;494.77;;
9322;SDS011;4700;48.822;9.270;2023-07-22T12:23:28;556.57;;;501.93;;
9322;SDS011;4700;48.822;9.270;2023-07-22T12:26:15;570.90;;;515.57;;
9322;SDS011;4700;48.822;9.270;2023-07-22T12:29:00;575.23;;;519.70;;
9322;SDS011;4700;48.822;9.270;2023-07-22T12:31:48;575.13;;;519.67;;
9322;SDS011;4700;48.822;9.270;2023-07-22T12:34:33;556.97;;;501.63;;
9322;SDS011;4700;48.822;9.270;2023-07-22T12:37:19;569.10;;;513.50;;
9322;SDS011;4700;48.822;9.270;2023-07-22T12:40:05;568.90;;;513.30;;
9322;SDS011;4700;48.822;9.270;2023-07-22T12:42:52;563.07;;;507.90;;
9322;SDS011;4700;48.822;9.270;2023-07-22T12:45:37;547.60;;;492.70;;
9322;SDS011;4700;48.822;9.270;2023-07-22T12:48:24;566.70;;;511.17;;
9322;SDS011;4700;48.822;9.270;2023-07-22T12:51:10;567.23;;;511.87;;
9322;SDS011;4700;48.822;9.270;2023-07-22T12:53:57;577.10;;;521.47;;
9322;SDS011;4700;48.822;9.270;2023-07-22T12:56:43;570.23;;;514.73;;
9322;SDS011;4700;48.822;9.270;2023-07-22T12:59:28;570.53;;;514.93;;
9322;SDS011;4700;48.822;9.270;2023-07-22T13:02:15;587.50;;;531.63;;
9322;SDS011;4700;48.822;9.270;2023-07-22T13:05:02;587.07;;;531.00;;
9322;SDS011;4700;48.822;9.270;2023-07-22T13:07:49;571.90;;;516.53;;
9322;SDS011;4700;48.822;9.270;2023-07-22T13:10:38;562.67;;;507.57;;
9322;SDS011;4700;48.822;9.270;2023-07-22T13:13:27;550.90;;;496.40;;
9322;SDS011;4700;48.822;9.270;2023-07-22T13:16:12;570.37;;;515.10;;
9322;SDS011;4700;48.822;9.270;2023-07-22T13:18:58;578.10;;;522.70;;
9322;SDS011;4700;48.822;9.270;2023-07-22T13:21:48;559.77;;;504.47;;
9322;SDS011;4700;48.822;9.270;2023-07-22T13:24:33;560.80;;;505.63;;
9322;SDS011;4700;48.822;9.270;2023-07-22T13:27:19;561.37;;;506.33;;
9322;SDS011;4700;48.822;9.270;2023-07-22T13:30:06;589.67;;;533.53;;
9322;SDS011;4700;48.822;9.270;2023-07-22T13:32:52;579.30;;;523.70;;
9322;SDS011;4700;48.822;9.270;2023-07-22T13:35:38;572.33;;;516.93;;
9322;SDS011;4700;48.822;9.270;2023-07-22T13:38:25;584.20;;;528.40;;
9322;SDS011;4700;48.822;9.270;2023-07-22T13:41:10;572.67;;;517.23;;
9322;SDS011;4700;48.822;9.270;2023-07-22T13:43:56;588.13;;;532.97;;
9322;SDS011;4700;48.822;9.270;2023-07-22T13:46:41;579.13;;;524.03;;
9322;SDS011;4700;48.822;9.270;2023-07-22T13:49:28;598.00;;;542.17;;
9322;SDS011;4700;48.822;9.270;2023-07-22T13:52:14;574.23;;;519.03;;
9322;SDS011;4700;48.822;9.270;2023-07-22T13:55:04;572.30;;;517.00;;
9322;SDS011;4700;48.822;9.270;2023-07-22T13:57:50;582.57;;;527.37;;
9322;SDS011;4700;48.822;9.270;2023-07-22T14:00:36;578.93;;;523.70;;
9322;SDS011;4700;48.822;9.270;2023-07-22T14:03:21;546.67;;;492.17;;
9322;SDS011;4700;48.822;9.270;2023-07-22T14:06:07;569.97;;;514.90;;
9322;SDS011;4700;48.822;9.270;2023-07-22T14:08:53;547.10;;;492.60;;
9322;SDS011;4700;48.822;9.270;2023-07-22T14:11:40;573.37;;;517.67;;
9322;SDS011;4700;48.822;9.270;2023-07-22T14:14:26;571.67;;;515.90;;
9322;SDS011;4700;48.822;9.270;2023-07-22T14:17:13;591.90;;;535.80;;
9322;SDS011;4700;48.822;9.270;2023-07-22T14:19:58;560.90;;;505.37;;
9322;SDS011;4700;48.822;9.270;2023-07-22T14:22:44;553.27;;;498.07;;
9322;SDS011;4700;48.822;9.270;2023-07-22T14:25:29;550.20;;;495.27;;
9322;SDS011;4700;48.822;9.270;2023-07-22T14:28:16;569.17;;;513.90;;
9322;SDS011;4700;48.822;9.270;2023-07-22T14:31:03;563.50;;;508.10;;
9322;SDS011;4700;48.822;9.270;2023-07-22T14:33:48;569.57;;;514.37;;
9322;SDS011;4700;48.822;9.270;2023-07-22T14:36:34;564.27;;;509.07;;
9322;SDS011;4700;48.822;9.270;2023-07-22T14:39:21;571.13;;;516.00;;
9322;SDS011;4700;48.822;9.270;2023-07-22T14:42:07;556.20;;;501.27;;
9322;SDS011;4700;48.822;9.270;2023-07-22T14:44:54;561.67;;;506.77;;
9322;SDS011;4700;48.822;9.270;2023-07-22T14:47:32;576.03;;;520.73;;
9322;SDS011;4700;48.822;9.270;2023-07-22T14:50:18;583.67;;;527.60;;
9322;SDS011;4700;48.822;9.270;2023-07-22T14:53:07;589.97;;;534.57;;
9322;SDS011;4700;48.822;9.270;2023-07-22T14:55:52;567.50;;;512.30;;
9322;SDS011;4700;48.822;9.270;2023-07-22T14:58:38;568.73;;;513.57;;
9322;SDS011;4700;48.822;9.270;2023-07-22T15:01:25;556.97;;;501.87;;
9322;SDS011;4700;48.822;9.270;2023-07-22T15:04:11;572.33;;;516.93;;
9322;SDS011;4700;48.822;9.270;2023-07-22T15:06:57;555.90;;;500.90;;
9322;SDS011;4700;48.822;9.270;2023-07-22T15:09:42;558.63;;;503.73;;
9322;SDS011;4700;48.822;9.270;2023-07-22T15:12:28;568.30;;;513.30;;
9322;SDS011;4700;48.822;9.270;2023-07-22T15:15:14;577.27;;;521.83;;
9322;SDS011;4700;48.822;9.270;2023-07-22T15:18:01;569.20;;;514.00;;
9322;SDS011;4700;48.822;9.270;2023-07-22T15:20:46;561.07;;;506.00;;
9322;SDS011;4700;48.822;9.270;2023-07-22T15:23:32;570.13;;;514.53;;
9322;SDS011;4700;48.822;9.270;2023-07-22T15:26:19;572.47;;;516.87;;
9322;SDS011;4700;48.822;9.270;2023-07-22T15:29:05;587.17;;;531.40;;
9322;SDS011;4700;48.822;9.270;2023-07-22T15:31:50;569.47;;;514.43;;
9322;SDS011;4700;48.822;9.270;2023-07-22T15:34:37;572.03;;;516.47;;
9322;SDS011;4700;48.822;9.270;2023-07-22T15:37:23;556.80;;;501.60;;
9322;SDS011;4700;48.822;9.270;2023-07-22T15:40:09;573.67;;;518.27;;
9322;SDS011;4700;48.822;9.270;2023-07-22T15:42:55;567.27;;;512.67;;
9322;SDS011;4700;48.822;9.270;2023-07-22T15:45:41;593.10;;;535.17;;
9322;SDS011;4700;48.822;9.270;2023-07-22T15:48:27;559.60;;;504.57;;
9322;SDS011;4700;48.822;9.270;2023-07-22T15:51:13;577.63;;;522.13;;
9322;SDS011;4700;48.822;9.270;2023-07-22T15:54:00;574.60;;;518.97;;
9322;SDS011;4700;48.822;9.270;2023-07-22T15:56:45;576.33;;;519.93;;
9322;SDS011;4700;48.822;9.270;2023-07-22T15:59:31;558.57;;;503.43;;
9322;SDS011;4700;48.822;9.270;2023-07-22T16:02:17;561.93;;;506.33;;
9322;SDS011;4700;48.822;9.270;2023-07-22T16:05:03;589.33;;;533.63;;
9322;SDS011;4700;48.822;9.270;2023-07-22T16:07:51;568.97;;;513.37;;
9322;SDS011;4700;48.822;9.270;2023-07-22T16:10:36;558.57;;;503.47;;
9322;SDS011;4700;48.822;9.270;2023-07-22T16:13:22;571.67;;;516.17;;
9322;SDS011;4700;48.822;9.270;2023-07-22T16:16:08;562.27;;;507.20;;
9322;SDS011;4700;48.822;9.270;2023-07-22T16:18:53;558.13;;;503.43;;
9322;SDS011;4700;48.822;9.270;2023-07-22T16:21:39;543.67;;;489.07;;